createdAt,value
2019-06-08T00:00:26.800Z,100727.28
2019-06-08T00:02:53.783Z,100724.06
2019-06-08T00:05:21.127Z,100723.47
2019-06-08T00:07:48.233Z,100729.71
2019-06-08T00:10:20.551Z,100732.26
2019-06-08T00:12:46.160Z,100724.84
2019-06-08T00:15:14.039Z,100724.38
2019-06-08T00:17:41.297Z,100730.47
2019-06-08T00:20:10.062Z,100722.13
2019-06-08T00:22:43.850Z,100724.23
2019-06-08T00:25:11.465Z,100728.56
2019-06-08T00:27:38.505Z,100727.84
2019-06-08T00:30:06.610Z,100724.72
2019-06-08T00:32:33.639Z,100722.90
2019-06-08T00:35:00.616Z,100716.30
2019-06-08T00:37:27.649Z,100719.41
2019-06-08T00:39:54.622Z,100724.94
2019-06-08T00:42:21.605Z,100723.50
2019-06-08T00:44:49.694Z,100723.67
2019-06-08T00:47:20.946Z,100723.23
2019-06-08T00:49:50.225Z,100725.50
2019-06-08T00:52:17.232Z,100727.70
2019-06-08T00:54:44.681Z,100718.45
2019-06-08T00:57:19.698Z,100720.10
2019-06-08T00:59:46.980Z,100725.97
2019-06-08T01:02:13.926Z,100725.58
2019-06-08T01:04:40.915Z,100714.83
2019-06-08T01:07:07.937Z,100714.48
2019-06-08T01:09:34.939Z,100720.58
2019-06-08T01:12:01.877Z,100711.68
2019-06-08T01:14:29.143Z,100717.81
2019-06-08T01:17:02.175Z,100717.38
2019-06-08T01:19:29.639Z,100716.57
2019-06-08T01:21:56.797Z,100720.66
2019-06-08T01:24:23.807Z,100721.02
2019-06-08T01:26:50.798Z,100727.12
2019-06-08T01:29:17.822Z,100723.67
2019-06-08T01:31:44.798Z,100720.11
2019-06-08T01:34:15.474Z,100718.48
2019-06-08T01:37:06.172Z,100717.63
2019-06-08T01:39:35.531Z,100718.98
2019-06-08T01:42:02.510Z,100717.26
2019-06-08T01:44:30.051Z,100716.30
2019-06-08T01:46:57.187Z,100711.44
2019-06-08T01:49:26.251Z,100713.25
2019-06-08T01:51:53.283Z,100708.70
2019-06-08T01:54:20.286Z,100707.92
2019-06-08T01:56:47.276Z,100709.28
2019-06-08T01:59:14.261Z,100711.45
2019-06-08T02:01:43.575Z,100706.66
2019-06-08T02:04:17.342Z,100708.00
2019-06-08T02:06:44.356Z,100705.42
2019-06-08T02:09:11.357Z,100696.58
2019-06-08T02:11:38.385Z,100697.95
2019-06-08T02:14:05.476Z,100698.34
2019-06-08T02:16:35.596Z,100686.88
2019-06-08T02:19:02.662Z,100686.41
2019-06-08T02:21:30.854Z,100680.63
2019-06-08T02:23:58.122Z,100682.80
2019-06-08T02:26:27.583Z,100679.25
2019-06-08T02:28:54.017Z,100681.50
2019-06-08T02:31:21.054Z,100689.98
2019-06-08T02:33:55.874Z,100685.05
2019-06-08T02:36:22.890Z,100690.84
2019-06-08T02:38:49.882Z,100686.02
2019-06-08T02:41:16.893Z,100681.23
2019-06-08T02:43:44.069Z,100685.66
2019-06-08T02:46:11.086Z,100697.59
2019-06-08T02:49:00.155Z,100697.49
2019-06-08T02:51:07.006Z,100697.08
2019-06-08T02:53:35.984Z,100691.77
2019-06-08T02:56:03.859Z,100691.70
2019-06-08T02:58:33.540Z,100686.77
2019-06-08T03:01:01.929Z,100699.19
2019-06-08T03:03:35.766Z,100694.91
2019-06-08T03:06:03.559Z,100696.58
2019-06-08T03:08:36.284Z,100694.77
2019-06-08T03:11:04.622Z,100700.98
2019-06-08T03:13:33.952Z,100699.68
2019-06-08T03:16:02.639Z,100691.28
2019-06-08T03:18:31.464Z,100695.63
2019-06-08T03:20:58.492Z,100681.43
2019-06-08T03:23:25.459Z,100695.74
2019-06-08T03:25:53.461Z,100695.67
2019-06-08T03:28:20.764Z,100691.72
2019-06-08T03:30:54.303Z,100684.09
2019-06-08T03:33:16.675Z,100675.73
2019-06-08T03:35:55.816Z,100677.98
2019-06-08T03:38:15.351Z,100677.98
2019-06-08T03:40:43.485Z,100681.53
2019-06-08T03:43:11.216Z,100685.00
2019-06-08T03:45:38.327Z,100687.28
2019-06-08T03:48:05.387Z,100682.36
2019-06-08T03:50:32.369Z,100685.45
2019-06-08T03:52:59.490Z,100684.60
2019-06-08T03:55:26.503Z,100676.58
2019-06-08T03:57:53.544Z,100683.28
2019-06-08T04:00:20.561Z,100685.02
2019-06-08T04:02:47.566Z,100678.44
2019-06-08T04:05:14.647Z,100673.09
2019-06-08T04:07:42.205Z,100667.73
2019-06-08T04:10:10.710Z,100681.09
2019-06-08T04:12:37.861Z,100682.42
2019-06-08T04:15:09.893Z,100679.33
2019-06-08T04:17:42.206Z,100685.55
2019-06-08T04:20:16.861Z,100688.25
2019-06-08T04:22:46.307Z,100697.07
2019-06-08T04:25:14.021Z,100686.05
2019-06-08T04:27:55.633Z,100695.30
2019-06-08T04:30:22.718Z,100707.76
2019-06-08T04:32:52.498Z,100697.42
2019-06-08T04:35:21.385Z,100703.27
2019-06-08T04:37:50.657Z,100701.58
2019-06-08T04:40:17.834Z,100702.94
2019-06-08T04:42:46.709Z,100708.22
2019-06-08T04:45:14.151Z,100694.48
2019-06-08T04:47:43.216Z,100707.76
2019-06-08T04:50:22.653Z,100715.27
2019-06-08T04:52:40.809Z,100712.96
2019-06-08T04:55:07.980Z,100715.69
2019-06-08T04:57:34.987Z,100726.77
2019-06-08T05:00:11.188Z,100728.04
2019-06-08T05:02:33.946Z,100723.59
2019-06-08T05:05:00.970Z,100724.39
2019-06-08T05:07:29.761Z,100738.47
2019-06-08T05:09:56.781Z,100744.82
2019-06-08T05:12:26.074Z,100750.56
2019-06-08T05:14:53.133Z,100741.62
2019-06-08T05:17:20.139Z,100756.68
2019-06-08T05:19:47.461Z,100765.52
2019-06-08T05:22:14.518Z,100759.16
2019-06-08T05:24:43.507Z,100752.53
2019-06-08T05:27:15.422Z,100768.39
2019-06-08T05:29:43.252Z,100771.89
2019-06-08T05:32:10.288Z,100766.47
2019-06-08T05:34:41.377Z,100766.53
2019-06-08T05:37:13.507Z,100777.67
2019-06-08T05:39:41.470Z,100776.13
2019-06-08T05:42:08.561Z,100789.41
2019-06-08T05:44:40.079Z,100778.84
2019-06-08T05:47:06.849Z,100778.87
2019-06-08T05:49:33.824Z,100790.77
2019-06-08T05:52:00.944Z,100782.81
2019-06-08T05:54:27.906Z,100785.53
2019-06-08T05:57:01.741Z,100792.82
2019-06-08T05:59:31.875Z,100792.98
2019-06-08T06:01:58.857Z,100791.94
2019-06-08T06:04:25.962Z,100789.25
2019-06-08T06:06:52.963Z,100798.09
2019-06-08T06:09:19.940Z,100804.34
2019-06-08T06:11:48.905Z,100815.69
2019-06-08T06:14:15.931Z,100796.02
2019-06-08T06:16:43.141Z,100814.12
2019-06-08T06:19:11.487Z,100809.87
2019-06-08T06:21:41.532Z,100806.04
2019-06-08T06:24:08.540Z,100806.75
2019-06-08T06:26:35.559Z,100811.27
2019-06-08T06:29:02.832Z,100798.56
2019-06-08T06:31:33.566Z,100807.84
2019-06-08T06:34:00.579Z,100807.84
2019-06-08T06:36:27.557Z,100800.02
2019-06-08T06:39:04.259Z,100808.62
2019-06-08T06:41:33.848Z,100802.50
2019-06-08T06:44:00.858Z,100821.94
2019-06-08T06:46:27.862Z,100817.14
2019-06-08T06:48:58.228Z,100825.16
2019-06-08T06:51:26.811Z,100814.94
2019-06-08T06:53:55.125Z,100846.27
2019-06-08T06:56:22.215Z,100858.16
2019-06-08T06:58:49.425Z,100858.61
2019-06-08T07:01:16.444Z,100845.86
2019-06-08T07:03:44.528Z,100846.75
2019-06-08T07:06:12.746Z,100847.63
2019-06-08T07:08:42.010Z,100843.17
2019-06-08T07:11:08.732Z,100849.80
2019-06-08T07:13:35.728Z,100856.60
2019-06-08T07:18:56.587Z,100854.45
2019-06-08T07:21:23.587Z,100854.90
2019-06-08T07:23:54.398Z,100848.23
2019-06-08T07:26:20.710Z,100854.56
2019-06-08T07:28:53.598Z,100846.70
2019-06-08T07:31:21.150Z,100870.94
2019-06-08T07:33:51.860Z,100866.99
2019-06-08T07:36:18.173Z,100875.97
2019-06-08T07:38:45.226Z,100875.08
2019-06-08T07:41:12.204Z,100887.02
2019-06-08T07:43:39.280Z,100880.95
2019-06-08T07:46:06.268Z,100880.77
2019-06-08T07:48:33.240Z,100893.67
2019-06-08T07:51:00.489Z,100886.16
2019-06-08T07:53:27.515Z,100889.76
2019-06-08T07:55:56.232Z,100902.99
2019-06-08T07:58:26.141Z,100908.27
2019-06-08T08:00:54.635Z,100903.09
2019-06-08T08:03:22.859Z,100911.08
2019-06-08T08:05:50.369Z,100912.84
2019-06-08T08:08:17.560Z,100923.02
2019-06-08T08:10:44.542Z,100913.16
2019-06-08T08:13:11.562Z,100905.95
2019-06-08T08:15:38.623Z,100916.19
2019-06-08T08:18:08.456Z,100907.82
2019-06-08T08:20:35.691Z,100917.52
2019-06-08T08:23:12.487Z,100917.38
2019-06-08T08:25:39.525Z,100916.87
2019-06-08T08:28:08.220Z,100912.86
2019-06-08T08:30:37.687Z,100949.97
2019-06-08T08:33:07.783Z,100936.17
2019-06-08T08:35:35.052Z,100949.16
2019-06-08T08:38:04.396Z,100942.53
2019-06-08T08:40:31.013Z,100955.24
2019-06-08T08:42:58.760Z,100953.51
2019-06-08T08:45:27.616Z,100946.98
2019-06-08T08:48:14.417Z,100952.25
2019-06-08T08:50:28.409Z,100958.58
2019-06-08T08:52:58.492Z,100957.70
2019-06-08T08:55:24.319Z,100949.64
2019-06-08T08:57:52.160Z,100960.66
2019-06-08T09:00:20.407Z,100966.95
2019-06-08T09:02:59.135Z,100971.73
2019-06-08T09:05:20.198Z,100983.78
2019-06-08T09:07:48.296Z,100963.78
2019-06-08T09:10:18.123Z,100989.94
2019-06-08T09:12:44.851Z,100985.92
2019-06-08T09:15:18.986Z,100992.21
2019-06-08T09:17:48.157Z,100996.74
2019-06-08T09:20:15.871Z,101000.64
2019-06-08T09:22:53.730Z,101003.25
2019-06-08T09:25:14.540Z,101008.19
2019-06-08T09:27:41.478Z,100999.12
2019-06-08T09:30:09.625Z,101001.12
2019-06-08T09:32:38.265Z,101014.38
2019-06-08T09:35:05.895Z,101011.69
2019-06-08T09:37:32.912Z,101024.25
2019-06-08T09:40:00.882Z,101034.86
2019-06-08T09:42:31.801Z,101029.95
2019-06-08T09:45:02.150Z,101031.13
2019-06-08T09:47:28.085Z,101038.24
2019-06-08T09:50:00.401Z,101025.50
2019-06-08T09:52:28.161Z,101035.19
2019-06-08T09:55:02.030Z,101032.69
2019-06-08T09:57:30.320Z,101032.77
2019-06-08T10:00:04.353Z,101053.86
2019-06-08T10:02:31.129Z,101039.80
2019-06-08T10:05:00.509Z,101051.73
2019-06-08T10:07:31.071Z,101056.03
2019-06-08T10:09:58.766Z,101054.34
2019-06-08T10:12:25.011Z,101048.96
2019-06-08T10:14:52.001Z,101055.30
2019-06-08T10:17:20.977Z,101058.44
2019-06-08T10:19:49.179Z,101048.12
2019-06-08T10:22:18.259Z,101068.56
2019-06-08T10:24:49.089Z,101056.15
2019-06-08T10:27:18.534Z,101066.31
2019-06-08T10:29:44.585Z,101054.98
2019-06-08T10:32:13.957Z,101061.61
2019-06-08T10:34:47.970Z,101066.67
2019-06-08T10:37:14.798Z,101066.92
2019-06-08T10:39:42.157Z,101064.49
2019-06-08T10:42:11.954Z,101068.14
2019-06-08T10:44:38.960Z,101079.56
2019-06-08T10:47:09.987Z,101081.30
2019-06-08T10:50:43.086Z,101092.42
2019-06-08T10:53:12.382Z,101086.93
2019-06-08T10:55:40.892Z,101079.16
2019-06-08T10:58:11.379Z,101082.91
2019-06-08T11:00:40.231Z,101084.91
2019-06-08T11:03:10.042Z,101084.02
2019-06-08T11:05:36.169Z,101098.09
2019-06-08T11:08:04.475Z,101101.20
2019-06-08T11:10:37.274Z,101099.39
2019-06-08T11:13:08.246Z,101085.75
2019-06-08T11:15:34.648Z,101087.85
2019-06-08T11:18:04.744Z,101099.42
2019-06-08T11:20:30.646Z,101109.30
2019-06-08T11:22:58.383Z,101105.09
2019-06-08T11:25:28.047Z,101112.65
2019-06-08T11:27:55.225Z,101126.88
2019-06-08T11:30:26.671Z,101120.28
2019-06-08T11:32:51.444Z,101128.20
2019-06-08T11:35:18.531Z,101134.44
2019-06-08T11:37:45.501Z,101135.95
2019-06-08T11:40:14.683Z,101155.25
2019-06-08T11:42:41.767Z,101154.80
2019-06-08T11:45:11.138Z,101155.17
2019-06-08T11:47:39.151Z,101162.84
2019-06-08T11:50:11.671Z,101170.00
2019-06-08T11:52:39.488Z,101168.27
2019-06-08T11:55:07.482Z,101182.05
2019-06-08T11:57:40.910Z,101184.00
2019-06-08T12:00:24.038Z,101183.27
2019-06-08T12:02:44.964Z,101183.92
2019-06-08T12:05:20.713Z,101196.83
2019-06-08T12:07:48.110Z,101190.79
2019-06-08T12:10:17.635Z,101196.70
2019-06-08T12:12:44.165Z,101198.88
2019-06-08T12:15:13.257Z,101203.59
2019-06-08T12:17:40.390Z,101203.30
2019-06-08T12:20:12.830Z,101210.70
2019-06-08T12:22:37.677Z,101213.36
2019-06-08T12:25:06.190Z,101223.61
2019-06-08T12:27:39.409Z,101219.63
2019-06-08T12:30:13.319Z,101226.34
2019-06-08T12:32:36.365Z,101237.57
2019-06-08T12:35:03.553Z,101238.14
2019-06-08T12:37:33.706Z,101236.81
2019-06-08T12:40:07.593Z,101243.80
2019-06-08T12:42:34.387Z,101240.43
2019-06-08T12:45:04.533Z,101252.41
2019-06-08T12:47:35.156Z,101254.45
2019-06-08T12:50:02.199Z,101240.55
2019-06-08T12:52:29.796Z,101263.56
2019-06-08T12:55:06.090Z,101253.27
2019-06-08T12:57:28.390Z,101262.70
2019-06-08T12:59:59.788Z,101267.89
2019-06-08T13:02:24.427Z,101265.67
2019-06-08T13:04:52.060Z,101283.33
2019-06-08T13:07:21.892Z,101287.91
2019-06-08T13:09:48.923Z,101288.16
2019-06-08T13:12:21.248Z,101305.17
2019-06-08T13:14:53.322Z,101316.59
2019-06-08T13:17:21.312Z,101314.11
2019-06-08T13:19:48.395Z,101297.92
2019-06-08T13:22:15.424Z,101306.70
2019-06-08T13:24:48.561Z,101305.63
2019-06-08T13:27:19.199Z,101314.65
2019-06-08T13:29:44.495Z,101305.42
2019-06-08T13:32:11.745Z,101310.63
2019-06-08T13:34:38.893Z,101306.36
2019-06-08T13:37:08.215Z,101309.45
2019-06-08T13:39:34.748Z,101306.09
2019-06-08T13:42:01.733Z,101293.14
2019-06-08T13:44:31.780Z,101319.64
2019-06-08T13:46:58.757Z,101313.45
2019-06-08T13:49:29.689Z,101307.91
2019-06-08T13:51:54.618Z,101308.09
2019-06-08T13:54:23.605Z,101287.80
2019-06-08T13:56:50.647Z,101308.55
2019-06-08T13:59:22.285Z,101300.28
2019-06-08T14:01:53.435Z,101319.14
2019-06-08T14:04:21.075Z,101330.66
2019-06-08T14:06:50.599Z,101339.11
2019-06-08T14:09:22.102Z,101340.41
2019-06-08T14:11:50.962Z,101339.08
2019-06-08T14:14:19.936Z,101351.52
2019-06-08T14:16:50.722Z,101333.56
2019-06-08T14:19:19.980Z,101347.91
2019-06-08T14:21:47.626Z,101349.45
2019-06-08T14:24:22.863Z,101346.24
2019-06-08T14:26:48.510Z,101329.75
2019-06-08T14:29:18.423Z,101341.17
2019-06-08T14:31:50.732Z,101339.37
2019-06-08T14:34:22.978Z,101335.34
2019-06-08T14:36:49.500Z,101360.48
2019-06-08T14:39:22.027Z,101365.30
2019-06-08T14:41:49.716Z,101366.88
2019-06-08T14:44:19.600Z,101378.77
2019-06-08T14:46:47.978Z,101380.59
2019-06-08T14:49:18.280Z,101369.29
2019-06-08T14:51:51.621Z,101369.42
2019-06-08T14:54:32.778Z,101374.95
2019-06-08T14:56:57.786Z,101387.97
2019-06-08T14:59:25.512Z,101380.62
2019-06-08T15:01:53.867Z,101373.98
2019-06-08T15:04:23.795Z,101388.70
2019-06-08T15:06:49.757Z,101392.86
2019-06-08T15:09:19.431Z,101396.80
2019-06-08T15:11:48.461Z,101393.22
2019-06-08T15:14:15.415Z,101390.20
2019-06-08T15:16:45.527Z,101395.52
2019-06-08T15:19:12.507Z,101408.67
2019-06-08T15:21:39.693Z,101410.53
2019-06-08T15:24:11.317Z,101424.30
2019-06-08T15:26:42.771Z,101426.28
2019-06-08T15:29:07.538Z,101425.96
2019-06-08T15:31:34.615Z,101434.82
2019-06-08T15:34:01.577Z,101468.58
2019-06-08T15:36:30.729Z,101432.13
2019-06-08T15:38:58.591Z,101468.92
2019-06-08T15:41:26.527Z,101440.41
2019-06-08T15:43:54.419Z,101465.03
2019-06-08T15:46:22.071Z,101485.12
2019-06-08T15:48:51.119Z,101489.72
2019-06-08T15:51:18.077Z,101502.19
2019-06-08T15:53:47.701Z,101513.84
2019-06-08T15:56:15.122Z,101503.00
2019-06-08T15:58:42.079Z,101516.56
2019-06-08T16:01:09.063Z,101513.08
2019-06-08T16:03:40.474Z,101517.07
2019-06-08T16:06:08.796Z,101510.69
2019-06-08T16:08:37.875Z,101503.84
2019-06-08T16:11:04.717Z,101506.73
2019-06-08T16:13:33.048Z,101512.63
2019-06-08T16:16:00.010Z,101499.98
2019-06-08T16:18:27.406Z,101513.23
2019-06-08T16:20:57.511Z,101519.47
2019-06-08T16:23:25.354Z,101503.34
2019-06-08T16:25:58.064Z,101513.41
2019-06-08T16:28:25.692Z,101518.96
2019-06-08T16:30:52.748Z,101522.34
2019-06-08T16:33:19.756Z,101520.70
2019-06-08T16:35:48.517Z,101520.88
2019-06-08T16:38:15.522Z,101519.80
2019-06-08T16:40:42.486Z,101520.81
2019-06-08T16:43:09.486Z,101522.70
2019-06-08T16:45:37.735Z,101529.34
2019-06-08T16:48:04.750Z,101524.61
2019-06-08T16:50:32.922Z,101524.27
2019-06-08T16:52:59.864Z,101527.25
2019-06-08T16:55:27.697Z,101541.08
2019-06-08T16:57:54.793Z,101529.59
2019-06-08T17:00:40.776Z,101541.02
2019-06-08T17:02:54.550Z,101532.99
2019-06-08T17:05:21.530Z,101526.75
2019-06-08T17:07:48.498Z,101548.21
2019-06-08T17:10:15.519Z,101591.86
2019-06-08T17:12:42.528Z,101584.38
2019-06-08T17:15:09.784Z,101596.00
2019-06-08T17:17:36.760Z,101606.16
2019-06-08T17:20:09.308Z,101615.19
2019-06-08T17:22:36.745Z,101598.53
2019-06-08T17:25:04.169Z,101609.39
2019-06-08T17:27:32.655Z,101608.50
2019-06-08T17:29:59.966Z,101611.80
2019-06-08T17:32:27.047Z,101625.15
2019-06-08T17:34:54.057Z,101616.72
2019-06-08T17:37:21.034Z,101608.07
2019-06-08T17:39:47.980Z,101612.62
2019-06-08T17:42:14.990Z,101608.42
2019-06-08T17:44:42.536Z,101609.84
2019-06-08T17:47:09.743Z,101610.44
2019-06-08T17:49:36.855Z,101611.67
2019-06-08T17:52:03.821Z,101611.09
2019-06-08T17:54:30.842Z,101610.18
2019-06-08T17:56:57.857Z,101609.53
2019-06-08T17:59:24.834Z,101611.80
2019-06-08T18:01:53.853Z,101614.53
2019-06-08T18:04:20.833Z,101612.30
2019-06-08T18:06:47.816Z,101617.58
2019-06-08T18:09:19.752Z,101620.87
2019-06-08T18:11:47.976Z,101631.86
2019-06-08T18:14:15.098Z,101634.49
2019-06-08T18:16:43.751Z,101631.35
2019-06-08T18:19:24.225Z,101647.69
2019-06-08T18:21:52.221Z,101633.75
2019-06-08T18:24:19.210Z,101631.84
2019-06-08T18:26:47.483Z,101652.47
2019-06-08T18:29:14.597Z,101645.53
2019-06-08T18:31:43.007Z,101650.84
2019-06-08T18:34:17.606Z,101649.52
2019-06-08T18:36:43.553Z,101659.31
2019-06-08T18:39:10.498Z,101651.96
2019-06-08T18:41:39.335Z,101657.27
2019-06-08T18:44:08.428Z,101654.88
2019-06-08T18:46:37.563Z,101669.38
2019-06-08T18:49:08.180Z,101659.90
2019-06-08T18:51:35.182Z,101668.55
2019-06-08T18:54:11.271Z,101671.52
2019-06-08T18:56:32.161Z,101679.19
2019-06-08T18:58:59.152Z,101674.91
2019-06-08T19:01:27.555Z,101690.27
2019-06-08T19:03:57.726Z,101685.95
2019-06-08T19:06:24.396Z,101681.59
2019-06-08T19:08:51.612Z,101693.84
2019-06-08T19:11:23.928Z,101693.88
2019-06-08T19:13:52.176Z,101692.56
2019-06-08T19:16:19.623Z,101695.27
2019-06-08T19:18:52.112Z,101695.72
2019-06-08T19:21:24.434Z,101695.27
2019-06-08T19:23:51.410Z,101698.63
2019-06-08T19:26:18.397Z,101714.13
2019-06-08T19:28:53.586Z,101722.89
2019-06-08T19:31:19.620Z,101724.96
2019-06-08T19:33:51.376Z,101730.86
2019-06-08T19:36:17.168Z,101723.69
2019-06-08T19:38:44.666Z,101738.00
2019-06-08T19:41:13.310Z,101732.98
2019-06-08T19:43:43.606Z,101729.95
2019-06-08T19:46:11.600Z,101727.97
2019-06-08T19:48:39.697Z,101726.67
2019-06-08T19:51:07.643Z,101731.72
2019-06-08T19:53:34.732Z,101738.86
2019-06-08T19:56:01.696Z,101748.67
2019-06-08T19:58:28.693Z,101749.08
2019-06-08T20:00:58.598Z,101744.81
2019-06-08T20:03:24.651Z,101748.59
2019-06-08T20:05:53.830Z,101758.92
2019-06-08T20:08:20.800Z,101754.26
2019-06-08T20:10:49.227Z,101762.78
2019-06-08T20:13:16.715Z,101762.61
2019-06-08T20:15:47.619Z,101770.64
2019-06-08T20:18:12.575Z,101774.12
2019-06-08T20:20:39.605Z,101772.45
2019-06-08T20:23:09.492Z,101778.42
2019-06-08T20:25:38.039Z,101784.09
2019-06-08T20:28:04.401Z,101788.89
2019-06-08T20:30:31.394Z,101792.34
2019-06-08T20:33:01.421Z,101799.70
2019-06-08T20:35:28.394Z,101787.77
2019-06-08T20:37:57.772Z,101803.61
2019-06-08T20:40:27.915Z,101807.75
2019-06-08T20:42:57.557Z,101808.68
2019-06-08T20:45:24.066Z,101812.14
2019-06-08T20:47:52.691Z,101816.51
2019-06-08T20:50:20.218Z,101819.93
2019-06-08T20:52:49.276Z,101825.47
2019-06-08T20:55:17.503Z,101829.20
2019-06-08T20:57:45.134Z,101828.95
2019-06-08T21:00:15.008Z,101838.47
2019-06-08T21:02:41.981Z,101843.27
2019-06-08T21:05:09.056Z,101852.70
2019-06-08T21:07:36.033Z,101844.03
2019-06-08T21:10:03.546Z,101847.00
2019-06-08T21:12:30.513Z,101848.91
2019-06-08T21:14:57.654Z,101853.78
2019-06-08T21:17:24.665Z,101855.09
2019-06-08T21:19:53.032Z,101863.38
2019-06-08T21:22:20.257Z,101857.69
2019-06-08T21:24:53.649Z,101856.39
2019-06-08T21:27:20.378Z,101858.67
2019-06-08T21:29:56.179Z,101871.39
2019-06-08T21:32:17.701Z,101860.43
2019-06-08T21:34:47.617Z,101867.23
2019-06-08T21:37:13.713Z,101877.00
2019-06-08T21:39:40.721Z,101876.84
2019-06-08T21:42:07.984Z,101876.63
2019-06-08T21:44:37.095Z,101878.13
2019-06-08T21:47:04.087Z,101880.63
2019-06-08T21:49:31.056Z,101884.95
2019-06-08T21:52:01.322Z,101883.03
2019-06-08T21:54:37.463Z,101883.92
2019-06-08T21:57:10.670Z,101890.80
2019-06-08T21:59:40.656Z,101891.44
2019-06-08T22:02:08.288Z,101896.95
2019-06-08T22:04:37.203Z,101899.36
2019-06-08T22:07:04.324Z,101895.17
2019-06-08T22:09:31.370Z,101893.84
2019-06-08T22:12:00.554Z,101895.55
2019-06-08T22:14:27.426Z,101896.87
2019-06-08T22:16:55.558Z,101899.27
2019-06-08T22:19:23.425Z,101900.32
2019-06-08T22:21:52.030Z,101898.63
2019-06-08T22:24:19.269Z,101897.08
2019-06-08T22:26:46.237Z,101898.99
2019-06-08T22:29:15.302Z,101902.20
2019-06-08T22:31:42.286Z,101899.02
2019-06-08T22:34:09.243Z,101904.78
2019-06-08T22:36:37.234Z,101906.53
2019-06-08T22:39:07.875Z,101914.75
2019-06-08T22:41:37.132Z,101919.19
2019-06-08T22:44:03.554Z,101915.19
2019-06-08T22:46:30.512Z,101919.25
2019-06-08T22:49:00.568Z,101917.77
2019-06-08T22:51:27.696Z,101919.47
2019-06-08T22:54:02.726Z,101920.78
2019-06-08T22:56:29.867Z,101922.91
2019-06-08T22:59:00.583Z,101926.52
2019-06-08T23:01:27.851Z,101930.12
2019-06-08T23:03:56.159Z,101933.87
2019-06-08T23:06:23.532Z,101926.52
2019-06-08T23:08:50.505Z,101930.95
2019-06-08T23:11:18.106Z,101931.55
2019-06-08T23:13:47.188Z,101935.05
2019-06-08T23:16:14.121Z,101937.30
2019-06-08T23:18:41.132Z,101945.32
2019-06-08T23:21:08.937Z,101945.52
2019-06-08T23:23:38.113Z,101953.37
2019-06-08T23:26:07.242Z,101954.16
2019-06-08T23:28:37.833Z,101956.09
2019-06-08T23:31:16.632Z,101961.48
2019-06-08T23:33:33.840Z,101968.46
2019-06-08T23:36:39.538Z,101968.92
2019-06-08T23:38:37.401Z,101968.98
2019-06-08T23:41:05.584Z,101966.41
2019-06-08T23:43:32.745Z,101968.36
2019-06-08T23:46:02.466Z,101966.67
2019-06-08T23:48:30.656Z,101971.97
2019-06-08T23:50:57.936Z,101977.73
2019-06-08T23:53:27.499Z,101978.16
2019-06-08T23:55:58.274Z,101976.95
2019-06-08T23:58:25.112Z,101982.25
